Time;durP1;ratioP1;P1;durP2;ratioP2;P2;SDS_P1;SDS_P2;PMS_P1;PMS_P2;Temp;Humidity;BMP_temperature;BMP_pressure;BME280_temperature;BME280_humidity;BME280_pressure;Samples;Min_cycle;Max_cycle;Signal;HPM_P1;HPM_P2
2022/03/01 00:01:30;;;;;;;;;;;2.60;99.90;;;;;;5056537;28;19925;-84
2022/03/01 00:03:56;;;;;;;;;;;2.60;99.90;;;;;;5057445;28;20003;-84
2022/03/01 00:06:22;;;;;;;;;;;2.60;99.90;;;;;;5101938;28;20136;-84
2022/03/01 00:08:47;;;;;;;;;;;2.50;99.90;;;;;;5068511;28;19978;-84
2022/03/01 00:11:13;;;;;;;;;;;2.50;99.90;;;;;;5077088;28;19924;-84
2022/03/01 00:13:39;;;;;;;;;;;2.60;99.90;;;;;;5066506;28;19975;-84
2022/03/01 00:16:05;;;;;;;;;;;2.50;99.90;;;;;;5094934;28;19974;-84
2022/03/01 00:18:31;;;;;;;;;;;2.50;99.90;;;;;;5083399;28;19924;-84
2022/03/01 00:20:57;;;;;;;;;;;2.50;99.90;;;;;;5084742;28;19977;-84
2022/03/01 00:23:22;;;;;;;;;;;2.50;99.90;;;;;;5062541;28;19928;-85
2022/03/01 00:25:48;;;;;;;;;;;2.60;99.90;;;;;;5057102;28;19939;-84
2022/03/01 00:28:13;;;;;;;;;;;2.50;99.90;;;;;;5051247;28;20380;-84
2022/03/01 00:30:39;;;;;;;;;;;2.50;99.90;;;;;;5058954;28;19935;-84
2022/03/01 00:33:07;;;;;;;;;;;2.50;99.90;;;;;;5076117;28;20338;-85
2022/03/01 00:41:26;;;;;;;;;;;2.50;99.90;;;;;;5261843;22;19925;-83
2022/03/01 00:43:57;;;;;;;;;;;2.50;99.90;;;;;;5018112;28;19925;-84
2022/03/01 00:46:26;;;;;;;;;;;2.50;99.90;;;;;;5017783;28;19928;-85
2022/03/01 00:49:21;;;;;;;;;;;2.50;99.90;;;;;;5034240;28;19928;-84
2022/03/01 00:51:50;;;;;;;;;;;2.50;99.90;;;;;;5003587;28;20612;-84
2022/03/01 00:54:27;;;;;;;;;;;2.50;99.90;;;;;;5018613;28;19970;-84
2022/03/01 00:56:56;;;;;;;;;;;2.50;99.90;;;;;;5034126;28;19940;-84
2022/03/01 00:59:21;;;;;;;;;;;2.50;99.90;;;;;;5017998;28;20419;-83
2022/03/01 01:01:53;;;;;;;;;;;2.50;99.90;;;;;;5034484;28;19929;-84
2022/03/01 01:04:31;;;;;;;;;;;2.50;99.90;;;;;;5001899;28;19971;-83
2022/03/01 01:07:00;;;;;;;;;;;2.50;99.90;;;;;;5034309;28;20408;-85
2022/03/01 01:09:32;;;;;;;;;;;2.50;99.90;;;;;;5034540;28;19974;-84
2022/03/01 01:12:07;;;;;;;;;;;2.50;99.90;;;;;;5031747;28;19933;-85
2022/03/01 01:14:36;;;;;;;;;;;2.50;99.90;;;;;;5033759;28;19925;-84
2022/03/01 01:17:02;;;;;;;;;;;2.50;99.90;;;;;;5033998;28;19925;-84
2022/03/01 01:19:30;;;;;;;;;;;2.50;99.90;;;;;;5034025;28;19924;-84
2022/03/01 01:24:47;;;;;;;;;;;2.60;99.90;;;;;;5033739;28;20411;-85
2022/03/01 01:27:22;;;;;;;;;;;2.50;99.90;;;;;;5034091;28;19975;-84
2022/03/01 01:29:56;;;;;;;;;;;2.60;99.90;;;;;;5023619;28;19928;-84
2022/03/01 01:32:43;;;;;;;;;;;2.70;99.90;;;;;;4999924;28;19991;-84
2022/03/01 01:35:26;;;;;;;;;;;2.60;99.90;;;;;;5033744;28;20031;-83
2022/03/01 01:37:58;;;;;;;;;;;2.70;99.90;;;;;;5022219;28;19971;-84
2022/03/01 01:40:35;;;;;;;;;;;2.70;99.90;;;;;;5036746;28;20425;-83
2022/03/01 01:43:04;;;;;;;;;;;2.70;99.90;;;;;;5036884;28;19974;-84
2022/03/01 01:45:30;;;;;;;;;;;2.70;99.90;;;;;;5020634;28;19960;-83
2022/03/01 01:47:58;;;;;;;;;;;2.70;99.90;;;;;;5021089;28;20418;-84
2022/03/01 01:50:27;;;;;;;;;;;2.80;99.90;;;;;;5036758;28;19924;-83
2022/03/01 01:52:56;;;;;;;;;;;2.80;99.90;;;;;;5037263;28;19939;-85
2022/03/01 01:55:34;;;;;;;;;;;2.80;99.90;;;;;;5003191;28;19928;-84
2022/03/01 01:58:16;;;;;;;;;;;2.80;99.90;;;;;;5037005;28;20400;-84
2022/03/01 02:00:47;;;;;;;;;;;2.80;99.90;;;;;;5037259;28;19925;-84
2022/03/01 02:03:24;;;;;;;;;;;2.80;99.90;;;;;;5021102;28;19935;-84
2022/03/01 02:05:53;;;;;;;;;;;2.80;99.90;;;;;;5037438;28;19979;-84
2022/03/01 02:08:36;;;;;;;;;;;2.80;99.90;;;;;;5020385;28;20542;-84
2022/03/01 02:11:10;;;;;;;;;;;2.80;99.90;;;;;;5036997;28;19924;-84
2022/03/01 02:13:38;;;;;;;;;;;2.80;99.90;;;;;;5020282;28;20016;-84
2022/03/01 02:16:16;;;;;;;;;;;2.70;99.90;;;;;;5034392;28;20020;-84
2022/03/01 02:18:47;;;;;;;;;;;2.70;99.90;;;;;;5036611;28;20344;-84
2022/03/01 02:21:25;;;;;;;;;;;2.70;99.90;;;;;;5036656;28;19929;-83
2022/03/01 02:23:53;;;;;;;;;;;2.70;99.90;;;;;;5020257;28;20423;-84
2022/03/01 02:26:25;;;;;;;;;;;2.70;99.90;;;;;;5005143;28;19975;-84
2022/03/01 02:28:59;;;;;;;;;;;2.80;99.90;;;;;;5020340;28;20389;-84
2022/03/01 02:31:30;;;;;;;;;;;2.70;99.90;;;;;;5035778;28;20016;-84
2022/03/01 02:34:13;;;;;;;;;;;2.70;99.90;;;;;;5019128;28;19931;-85
2022/03/01 02:36:39;;;;;;;;;;;2.70;99.90;;;;;;5036558;28;19929;-83
2022/03/01 02:39:13;;;;;;;;;;;2.70;99.90;;;;;;5036292;28;19931;-84
2022/03/01 02:41:44;;;;;;;;;;;2.70;99.90;;;;;;5018536;28;19952;-84
2022/03/01 02:44:18;;;;;;;;;;;2.70;99.90;;;;;;5035739;28;19931;-84
2022/03/01 02:46:49;;;;;;;;;;;2.70;99.90;;;;;;5035132;28;19925;-84
2022/03/01 02:49:18;;;;;;;;;;;2.70;99.90;;;;;;5020003;28;20071;-84
2022/03/01 02:51:55;;;;;;;;;;;2.70;99.90;;;;;;5036246;28;20007;-84
2022/03/01 02:54:21;;;;;;;;;;;2.70;99.90;;;;;;5019066;28;19970;-84
2022/03/01 02:56:46;;;;;;;;;;;2.70;99.90;;;;;;5019470;28;19933;-84
2022/03/01 02:59:15;;;;;;;;;;;2.70;99.90;;;;;;5019677;28;19932;-83
2022/03/01 03:01:51;;;;;;;;;;;2.60;99.90;;;;;;5034829;28;19925;-84
2022/03/01 03:04:22;;;;;;;;;;;2.70;99.90;;;;;;5018836;28;19925;-84
2022/03/01 03:06:49;;;;;;;;;;;2.60;99.90;;;;;;5036155;28;20293;-84
2022/03/01 03:09:23;;;;;;;;;;;2.60;99.90;;;;;;5019377;28;19978;-84
2022/03/01 03:11:49;;;;;;;;;;;2.60;99.90;;;;;;5019348;28;19932;-84
2022/03/01 03:14:23;;;;;;;;;;;2.60;99.90;;;;;;5035059;28;19925;-83
2022/03/01 03:16:54;;;;;;;;;;;2.60;99.90;;;;;;5034530;28;20437;-84
2022/03/01 03:19:23;;;;;;;;;;;2.50;99.90;;;;;;5035102;28;20384;-84
2022/03/01 03:21:49;;;;;;;;;;;2.60;99.90;;;;;;5035521;28;19932;-84
2022/03/01 03:24:18;;;;;;;;;;;2.50;99.90;;;;;;5017950;28;19936;-85
2022/03/01 03:26:46;;;;;;;;;;;2.60;99.90;;;;;;5040864;28;20387;-84
2022/03/01 03:29:18;;;;;;;;;;;2.60;99.90;;;;;;5034469;28;20285;-83
2022/03/01 03:31:46;;;;;;;;;;;2.60;99.90;;;;;;5032056;28;19974;-84
2022/03/01 03:34:18;;;;;;;;;;;2.60;99.90;;;;;;5054901;28;19931;-85
2022/03/01 03:36:43;;;;;;;;;;;2.60;99.90;;;;;;5053176;28;19925;-84
2022/03/01 03:39:12;;;;;;;;;;;2.60;99.90;;;;;;5054831;28;19928;-83
2022/03/01 03:41:43;;;;;;;;;;;2.60;99.90;;;;;;5051513;28;20396;-84
2022/03/01 03:44:18;;;;;;;;;;;2.60;99.90;;;;;;5019422;28;19932;-84
2022/03/01 03:46:46;;;;;;;;;;;2.60;99.90;;;;;;5031520;28;19925;-84
2022/03/01 03:49:12;;;;;;;;;;;2.60;99.90;;;;;;5015251;28;19944;-85
2022/03/01 03:51:41;;;;;;;;;;;2.60;99.90;;;;;;5003115;28;19925;-83
2022/03/01 03:54:27;;;;;;;;;;;2.60;99.90;;;;;;4995040;28;20401;-83
2022/03/01 03:57:19;;;;;;;;;;;2.60;99.90;;;;;;5012547;28;19929;-85
2022/03/01 03:59:42;;;;;;;;;;;2.60;99.90;;;;;;5010918;28;19932;-84
2022/03/01 04:02:13;;;;;;;;;;;2.70;99.90;;;;;;5012050;28;19925;-84
2022/03/01 04:04:45;;;;;;;;;;;2.70;99.90;;;;;;5026672;28;19925;-84
2022/03/01 04:07:22;;;;;;;;;;;2.70;99.90;;;;;;5016488;28;20016;-83
2022/03/01 04:09:53;;;;;;;;;;;2.70;99.90;;;;;;5015147;28;20312;-84
2022/03/01 04:12:24;;;;;;;;;;;2.70;99.90;;;;;;5031724;28;19929;-84
2022/03/01 04:14:53;;;;;;;;;;;2.70;99.90;;;;;;4998815;28;19925;-84
2022/03/01 04:17:24;;;;;;;;;;;2.70;99.90;;;;;;5031470;28;19924;-84
2022/03/01 04:20:03;;;;;;;;;;;2.80;99.90;;;;;;5015882;28;19925;-84
2022/03/01 04:22:32;;;;;;;;;;;2.70;99.90;;;;;;5030895;28;19929;-84
2022/03/01 04:25:05;;;;;;;;;;;2.70;99.90;;;;;;5015238;28;19991;-84
2022/03/01 04:27:31;;;;;;;;;;;2.80;99.90;;;;;;5031425;28;20282;-83
2022/03/01 04:30:00;;;;;;;;;;;2.70;99.90;;;;;;4999443;28;19929;-84
2022/03/01 04:32:38;;;;;;;;;;;2.80;99.90;;;;;;4998207;28;19925;-84
2022/03/01 04:35:13;;;;;;;;;;;2.80;99.90;;;;;;5017083;28;20046;-85
2022/03/01 04:37:46;;;;;;;;;;;2.80;99.90;;;;;;5051071;28;20281;-84
2022/03/01 04:40:21;;;;;;;;;;;2.80;99.90;;;;;;5051911;28;19935;-83
2022/03/01 04:42:49;;;;;;;;;;;2.70;99.90;;;;;;5051160;28;19974;-84
2022/03/01 04:45:18;;;;;;;;;;;2.70;99.90;;;;;;5034480;28;19931;-83
2022/03/01 04:47:44;;;;;;;;;;;2.70;99.90;;;;;;5001643;28;19924;-84
2022/03/01 04:50:17;;;;;;;;;;;2.70;99.90;;;;;;5034982;28;20286;-84
2022/03/01 04:52:43;;;;;;;;;;;2.80;99.90;;;;;;5017918;28;19928;-83
2022/03/01 04:55:11;;;;;;;;;;;2.70;99.90;;;;;;5034397;28;20000;-83
2022/03/01 04:57:40;;;;;;;;;;;2.80;99.90;;;;;;5018018;28;19972;-83
2022/03/01 05:00:10;;;;;;;;;;;2.70;99.90;;;;;;5034413;28;19925;-84
2022/03/01 05:02:47;;;;;;;;;;;2.70;99.90;;;;;;5034620;28;19925;-84
2022/03/01 05:05:18;;;;;;;;;;;2.70;99.90;;;;;;5017888;28;20285;-84
2022/03/01 05:07:54;;;;;;;;;;;2.70;99.90;;;;;;5030171;28;20002;-84
2022/03/01 05:10:34;;;;;;;;;;;2.70;99.90;;;;;;5019762;28;19975;-84
2022/03/01 05:13:17;;;;;;;;;;;2.70;99.90;;;;;;5022925;28;19932;-85
2022/03/01 05:15:52;;;;;;;;;;;2.70;99.90;;;;;;5020610;28;19966;-84
2022/03/01 05:18:23;;;;;;;;;;;2.80;99.90;;;;;;5021974;28;19925;-84
2022/03/01 05:20:58;;;;;;;;;;;2.70;99.90;;;;;;5008420;28;19935;-84
2022/03/01 05:23:32;;;;;;;;;;;2.80;99.90;;;;;;5022017;28;19982;-84
2022/03/01 05:26:00;;;;;;;;;;;2.70;99.90;;;;;;5021420;28;20016;-84
2022/03/01 05:28:26;;;;;;;;;;;2.80;99.90;;;;;;5037486;28;19972;-84
2022/03/01 05:31:00;;;;;;;;;;;2.90;99.90;;;;;;5037900;28;20356;-84
2022/03/01 05:33:29;;;;;;;;;;;2.80;99.90;;;;;;5037835;28;19925;-83
2022/03/01 05:36:00;;;;;;;;;;;2.80;99.90;;;;;;5037805;28;19925;-84
2022/03/01 05:38:33;;;;;;;;;;;2.80;99.90;;;;;;5037485;28;19931;-84
2022/03/01 05:41:05;;;;;;;;;;;2.80;99.90;;;;;;5021401;28;20043;-84
2022/03/01 05:43:43;;;;;;;;;;;2.80;99.90;;;;;;5037376;28;19932;-84
2022/03/01 05:46:15;;;;;;;;;;;2.80;99.90;;;;;;5037495;28;19928;-84
2022/03/01 05:48:46;;;;;;;;;;;2.90;99.90;;;;;;5005152;28;19994;-84
2022/03/01 05:51:15;;;;;;;;;;;2.80;99.90;;;;;;5004771;28;19935;-83
2022/03/01 05:53:44;;;;;;;;;;;2.90;99.90;;;;;;5020691;28;20399;-84
2022/03/01 05:56:09;;;;;;;;;;;2.90;99.90;;;;;;5037433;28;19974;-84
2022/03/01 05:58:41;;;;;;;;;;;2.90;99.90;;;;;;5020652;28;19955;-84
2022/03/01 06:01:06;;;;;;;;;;;2.90;99.90;;;;;;5037634;28;20027;-84
2022/03/01 06:03:32;;;;;;;;;;;2.80;99.90;;;;;;5020759;28;20015;-83
2022/03/01 06:06:16;;;;;;;;;;;2.90;99.90;;;;;;5021258;28;19932;-84
2022/03/01 06:08:50;;;;;;;;;;;2.90;99.90;;;;;;5017536;28;19948;-84
2022/03/01 06:11:16;;;;;;;;;;;2.90;99.90;;;;;;5017679;28;20003;-84
2022/03/01 06:13:53;;;;;;;;;;;2.90;99.90;;;;;;5015883;28;19931;-84
2022/03/01 06:16:22;;;;;;;;;;;2.90;99.90;;;;;;5017400;28;19929;-84
2022/03/01 06:18:51;;;;;;;;;;;2.90;99.90;;;;;;5036445;28;19928;-84
2022/03/01 06:21:16;;;;;;;;;;;2.90;99.90;;;;;;5036700;28;19925;-84
2022/03/01 06:23:56;;;;;;;;;;;2.90;99.90;;;;;;5036308;28;19924;-84
2022/03/01 06:26:25;;;;;;;;;;;3.00;99.90;;;;;;5020457;28;19924;-84
2022/03/01 06:28:53;;;;;;;;;;;3.00;99.90;;;;;;5034725;28;20019;-84
2022/03/01 06:31:39;;;;;;;;;;;3.00;99.90;;;;;;5052613;28;19948;-84
2022/03/01 06:34:11;;;;;;;;;;;3.10;99.90;;;;;;5005742;28;19932;-84
2022/03/01 06:36:47;;;;;;;;;;;3.10;99.90;;;;;;5019502;28;19925;-84
2022/03/01 06:39:15;;;;;;;;;;;3.10;99.90;;;;;;5036326;28;19929;-84
2022/03/01 06:41:50;;;;;;;;;;;3.00;99.90;;;;;;5036100;28;19978;-85
2022/03/01 06:44:22;;;;;;;;;;;3.10;99.90;;;;;;5019587;28;20020;-83
2022/03/01 06:47:08;;;;;;;;;;;3.10;99.90;;;;;;5003356;28;19936;-85
2022/03/01 06:49:34;;;;;;;;;;;3.10;99.90;;;;;;5034169;28;19925;-86
2022/03/01 06:52:00;;;;;;;;;;;3.10;99.90;;;;;;5031125;28;19925;-84
2022/03/01 06:54:34;;;;;;;;;;;3.20;99.90;;;;;;5031368;28;19932;-86
2022/03/01 06:57:06;;;;;;;;;;;3.10;99.90;;;;;;5021948;28;19925;-85
2022/03/01 06:59:34;;;;;;;;;;;3.20;99.90;;;;;;5017390;28;19925;-85
2022/03/01 07:02:03;;;;;;;;;;;3.20;99.90;;;;;;5035157;28;19925;-85
2022/03/01 07:04:37;;;;;;;;;;;3.20;99.90;;;;;;5018810;28;19975;-84
2022/03/01 07:07:05;;;;;;;;;;;3.30;99.90;;;;;;5018068;28;19979;-86
2022/03/01 07:09:36;;;;;;;;;;;3.30;99.90;;;;;;5003361;28;19959;-85
2022/03/01 07:12:10;;;;;;;;;;;3.30;99.90;;;;;;5035478;28;19924;-86
2022/03/01 07:14:45;;;;;;;;;;;3.30;99.90;;;;;;5032406;28;20491;-83
2022/03/01 07:17:16;;;;;;;;;;;3.40;99.90;;;;;;5036073;28;19931;-84
2022/03/01 07:19:44;;;;;;;;;;;3.30;99.90;;;;;;5035703;28;19928;-84
2022/03/01 07:22:10;;;;;;;;;;;3.30;99.90;;;;;;5018994;28;19936;-79
2022/03/01 07:24:53;;;;;;;;;;;3.30;99.90;;;;;;5019126;28;19924;-83
2022/03/01 07:27:22;;;;;;;;;;;3.40;99.90;;;;;;5014369;28;19940;-84
2022/03/01 07:29:54;;;;;;;;;;;3.40;99.90;;;;;;5035239;28;19924;-83
2022/03/01 07:32:25;;;;;;;;;;;3.40;99.90;;;;;;5009782;28;20063;-84
2022/03/01 07:34:51;;;;;;;;;;;3.50;99.90;;;;;;5009644;28;20397;-85
2022/03/01 07:37:16;;;;;;;;;;;3.50;99.90;;;;;;4999639;28;19925;-84
2022/03/01 07:39:42;;;;;;;;;;;3.50;99.90;;;;;;5018620;28;19928;-84
2022/03/01 07:42:26;;;;;;;;;;;3.50;99.90;;;;;;5031310;28;20471;-85
2022/03/01 07:44:57;;;;;;;;;;;3.60;99.90;;;;;;5031853;28;19932;-84
2022/03/01 07:47:41;;;;;;;;;;;3.60;99.90;;;;;;5016075;28;19933;-84
2022/03/01 07:50:12;;;;;;;;;;;3.60;99.90;;;;;;5014986;28;19983;-84
2022/03/01 07:52:41;;;;;;;;;;;3.70;99.90;;;;;;5032013;28;19936;-84
2022/03/01 07:55:09;;;;;;;;;;;3.70;99.90;;;;;;5015687;28;20024;-84
2022/03/01 07:57:43;;;;;;;;;;;3.70;99.90;;;;;;5015308;28;20337;-84
2022/03/01 08:00:19;;;;;;;;;;;3.80;99.90;;;;;;5025576;28;19931;-84
2022/03/01 08:02:47;;;;;;;;;;;3.80;99.90;;;;;;5014919;28;19975;-83
2022/03/01 08:05:13;;;;;;;;;;;3.80;99.90;;;;;;5031636;28;20273;-85
2022/03/01 08:07:41;;;;;;;;;;;3.80;99.90;;;;;;5015217;28;20013;-85
2022/03/01 08:10:10;;;;;;;;;;;3.90;99.90;;;;;;5031281;28;19929;-84
2022/03/01 08:12:47;;;;;;;;;;;3.90;99.90;;;;;;5031240;28;19925;-84
2022/03/01 08:15:16;;;;;;;;;;;4.00;99.90;;;;;;5031171;28;20350;-84
2022/03/01 08:17:46;;;;;;;;;;;4.00;99.90;;;;;;5031413;28;19925;-84
2022/03/01 08:20:32;;;;;;;;;;;4.10;99.90;;;;;;5014844;28;20284;-84
2022/03/01 08:23:03;;;;;;;;;;;4.10;99.90;;;;;;5031458;28;20374;-84
2022/03/01 08:25:34;;;;;;;;;;;4.10;99.90;;;;;;5015110;28;20250;-84
2022/03/01 08:28:00;;;;;;;;;;;4.20;99.90;;;;;;5014566;28;19976;-84
2022/03/01 08:30:35;;;;;;;;;;;4.20;99.90;;;;;;5015166;28;19925;-85
2022/03/01 08:33:04;;;;;;;;;;;4.30;99.90;;;;;;5014818;28;19921;-84
2022/03/01 08:35:34;;;;;;;;;;;4.30;99.90;;;;;;5014951;28;19933;-84
2022/03/01 08:38:07;;;;;;;;;;;4.30;99.90;;;;;;5031534;28;19925;-84
2022/03/01 08:40:39;;;;;;;;;;;4.30;99.90;;;;;;5031590;28;19948;-84
2022/03/01 08:43:13;;;;;;;;;;;4.40;99.90;;;;;;5013629;28;19926;-84
2022/03/01 08:45:41;;;;;;;;;;;4.40;99.90;;;;;;5031901;28;19931;-85
2022/03/01 08:48:13;;;;;;;;;;;4.40;99.90;;;;;;5019073;28;19933;-84
2022/03/01 08:50:47;;;;;;;;;;;4.50;99.90;;;;;;5034781;28;19975;-84
2022/03/01 08:53:16;;;;;;;;;;;4.50;99.90;;;;;;5036179;28;19979;-85
2022/03/01 08:55:53;;;;;;;;;;;4.60;99.90;;;;;;5018060;28;20376;-82
2022/03/01 08:58:19;;;;;;;;;;;4.60;99.90;;;;;;5034799;28;19984;-80
2022/03/01 09:00:45;;;;;;;;;;;4.60;99.90;;;;;;5035054;28;19991;-81
2022/03/01 09:03:19;;;;;;;;;;;4.60;99.90;;;;;;5035653;28;19932;-82
2022/03/01 09:05:58;;;;;;;;;;;4.70;99.90;;;;;;5025921;28;19936;-86
2022/03/01 09:08:32;;;;;;;;;;;4.70;99.90;;;;;;5030457;28;19972;-85
2022/03/01 09:11:28;;;;;;;;;;;4.80;99.90;;;;;;5034996;28;20332;-81
2022/03/01 09:14:01;;;;;;;;;;;4.80;99.90;;;;;;5029552;28;20349;-85
2022/03/01 09:16:33;;;;;;;;;;;4.80;99.90;;;;;;5015006;28;20495;-86
2022/03/01 09:19:01;;;;;;;;;;;4.80;99.90;;;;;;5031207;28;19925;-86
2022/03/01 09:21:37;;;;;;;;;;;4.80;99.90;;;;;;5033724;28;19929;-86
2022/03/01 09:24:02;;;;;;;;;;;4.80;99.90;;;;;;5017115;28;20348;-86
2022/03/01 09:26:37;;;;;;;;;;;4.90;99.90;;;;;;5033740;28;19929;-85
2022/03/01 09:29:03;;;;;;;;;;;4.90;99.90;;;;;;5017531;28;19935;-87
2022/03/01 09:31:34;;;;;;;;;;;5.00;99.90;;;;;;5029036;28;19971;-87
2022/03/01 09:34:06;;;;;;;;;;;5.00;99.90;;;;;;5046480;28;19933;-86
2022/03/01 09:36:37;;;;;;;;;;;5.00;99.90;;;;;;5031174;28;19932;-86
2022/03/01 09:39:09;;;;;;;;;;;5.00;99.90;;;;;;5028307;28;19972;-86
2022/03/01 09:41:53;;;;;;;;;;;5.10;99.90;;;;;;5015718;28;19929;-86
2022/03/01 09:44:19;;;;;;;;;;;5.10;99.90;;;;;;5032411;28;20353;-86
2022/03/01 09:46:56;;;;;;;;;;;5.10;99.90;;;;;;5015808;28;19932;-85
2022/03/01 09:49:22;;;;;;;;;;;5.10;99.90;;;;;;5033527;28;20480;-86
2022/03/01 09:52:03;;;;;;;;;;;5.20;99.90;;;;;;5040290;28;20353;-84
2022/03/01 09:54:34;;;;;;;;;;;5.20;99.90;;;;;;5030247;28;19931;-85
2022/03/01 09:57:03;;;;;;;;;;;5.30;99.90;;;;;;5028800;28;19940;-85
2022/03/01 09:59:44;;;;;;;;;;;5.30;99.90;;;;;;5029351;28;19975;-86
2022/03/01 10:02:10;;;;;;;;;;;5.40;99.90;;;;;;4998118;28;19929;-84
2022/03/01 10:04:58;;;;;;;;;;;5.40;99.90;;;;;;5013677;28;19926;-86
2022/03/01 10:07:26;;;;;;;;;;;5.50;99.90;;;;;;5036416;28;19932;-85
2022/03/01 10:09:56;;;;;;;;;;;5.50;99.90;;;;;;5033573;28;20626;-85
2022/03/01 10:12:29;;;;;;;;;;;5.50;99.90;;;;;;5017262;28;19979;-86
2022/03/01 10:14:55;;;;;;;;;;;5.60;99.90;;;;;;5016500;28;19995;-85
2022/03/01 10:17:41;;;;;;;;;;;5.60;99.90;;;;;;5033258;28;19929;-85
2022/03/01 10:20:14;;;;;;;;;;;5.60;99.90;;;;;;5032598;28;19933;-86
2022/03/01 10:22:54;;;;;;;;;;;5.60;99.90;;;;;;5032043;28;19935;-84
2022/03/01 10:25:27;;;;;;;;;;;5.60;99.90;;;;;;4997844;28;19933;-87
2022/03/01 10:27:58;;;;;;;;;;;5.60;99.90;;;;;;5024120;28;20285;-86
2022/03/01 10:30:37;;;;;;;;;;;5.60;99.90;;;;;;5033987;28;20017;-85
2022/03/01 10:33:05;;;;;;;;;;;5.50;99.90;;;;;;5015701;28;20318;-86
2022/03/01 10:35:44;;;;;;;;;;;5.50;99.90;;;;;;5016748;28;19932;-86
2022/03/01 10:38:11;;;;;;;;;;;5.50;99.90;;;;;;5032989;28;20776;-85
2022/03/01 10:40:42;;;;;;;;;;;5.40;99.90;;;;;;5032823;28;19931;-86
2022/03/01 10:43:19;;;;;;;;;;;5.40;99.90;;;;;;5027477;28;20401;-87
2022/03/01 10:45:49;;;;;;;;;;;5.30;99.90;;;;;;5048208;28;20024;-85
2022/03/01 10:48:26;;;;;;;;;;;5.40;99.90;;;;;;5025452;28;19928;-86
2022/03/01 10:50:58;;;;;;;;;;;5.30;99.90;;;;;;5032882;28;19929;-84
2022/03/01 10:53:29;;;;;;;;;;;5.30;99.90;;;;;;5032827;28;19929;-85
2022/03/01 10:56:24;;;;;;;;;;;5.30;99.90;;;;;;5032113;28;20350;-85
2022/03/01 10:58:56;;;;;;;;;;;5.30;99.90;;;;;;4994774;28;19936;-86
2022/03/01 11:01:27;;;;;;;;;;;5.40;99.90;;;;;;5032807;28;20388;-85
2022/03/01 11:03:55;;;;;;;;;;;5.30;99.90;;;;;;5000310;28;19950;-85
2022/03/01 11:07:09;;;;;;;;;;;5.30;99.90;;;;;;5011550;28;19972;-85
2022/03/01 11:09:16;;;;;;;;;;;5.40;99.90;;;;;;5023350;28;19933;-84
2022/03/01 11:11:51;;;;;;;;;;;5.40;99.90;;;;;;5022271;28;19926;-84
2022/03/01 11:14:49;;;;;;;;;;;5.50;99.90;;;;;;5008180;28;20016;-84
2022/03/01 11:17:17;;;;;;;;;;;5.50;99.90;;;;;;4990308;28;19925;-84
2022/03/01 11:20:07;;;;;;;;;;;5.50;99.90;;;;;;5023479;28;20003;-83
2022/03/01 11:22:40;;;;;;;;;;;5.60;99.90;;;;;;4996071;28;20270;-85
2022/03/01 11:25:16;;;;;;;;;;;5.60;99.90;;;;;;5010582;28;19968;-82
2022/03/01 11:27:56;;;;;;;;;;;5.60;99.90;;;;;;5011163;28;19925;-83
2022/03/01 11:30:34;;;;;;;;;;;5.60;99.90;;;;;;5021441;28;19979;-83
2022/03/01 11:33:07;;;;;;;;;;;5.70;99.90;;;;;;5013826;28;20433;-83
2022/03/01 11:35:53;;;;;;;;;;;5.70;99.90;;;;;;5011166;28;20038;-83
2022/03/01 11:38:29;;;;;;;;;;;5.70;99.90;;;;;;4995019;28;20302;-82
2022/03/01 11:41:09;;;;;;;;;;;5.70;99.90;;;;;;5019555;28;19995;-84
2022/03/01 11:43:53;;;;;;;;;;;5.70;99.90;;;;;;5018975;28;19933;-83
2022/03/01 11:46:24;;;;;;;;;;;5.70;99.90;;;;;;5018414;28;19929;-83
2022/03/01 11:48:57;;;;;;;;;;;5.70;99.90;;;;;;5010384;28;19937;-83
2022/03/01 11:51:39;;;;;;;;;;;5.80;99.90;;;;;;5012589;28;19929;-84
2022/03/01 11:54:06;;;;;;;;;;;5.80;99.90;;;;;;5017732;28;19955;-83
2022/03/01 11:56:50;;;;;;;;;;;5.90;99.90;;;;;;5011173;28;19940;-82
2022/03/01 11:59:24;;;;;;;;;;;5.90;99.90;;;;;;5022733;28;19975;-83
2022/03/01 12:01:53;;;;;;;;;;;5.90;99.90;;;;;;5019410;28;19983;-83
2022/03/01 12:04:26;;;;;;;;;;;5.80;99.90;;;;;;5014761;28;19930;-83
2022/03/01 12:07:00;;;;;;;;;;;6.00;99.90;;;;;;5021943;28;19965;-83
2022/03/01 12:09:29;;;;;;;;;;;6.00;99.90;;;;;;5025113;28;19983;-83
2022/03/01 12:12:05;;;;;;;;;;;6.00;99.90;;;;;;5009725;28;19976;-84
2022/03/01 12:14:38;;;;;;;;;;;6.10;99.90;;;;;;5010142;28;19979;-83
2022/03/01 12:17:19;;;;;;;;;;;6.20;99.90;;;;;;5013886;28;19925;-83
2022/03/01 12:19:57;;;;;;;;;;;6.30;99.90;;;;;;4998543;28;19979;-83
2022/03/01 12:22:29;;;;;;;;;;;6.50;99.90;;;;;;5028954;28;20297;-83
2022/03/01 12:25:00;;;;;;;;;;;6.70;99.90;;;;;;5010272;28;20328;-84
2022/03/01 12:27:34;;;;;;;;;;;6.70;99.90;;;;;;4996059;28;19933;-83
2022/03/01 12:30:09;;;;;;;;;;;6.80;99.90;;;;;;5031345;28;19987;-83
2022/03/01 12:32:48;;;;;;;;;;;6.90;99.90;;;;;;5031182;28;19929;-83
2022/03/01 12:35:19;;;;;;;;;;;7.10;99.90;;;;;;5030602;28;19925;-83
2022/03/01 12:37:56;;;;;;;;;;;7.10;99.90;;;;;;4999011;28;20334;-82
2022/03/01 12:40:28;;;;;;;;;;;7.00;99.90;;;;;;5013617;28;19921;-83
2022/03/01 12:43:05;;;;;;;;;;;7.00;99.90;;;;;;5031124;28;19925;-83
2022/03/01 12:45:35;;;;;;;;;;;7.00;99.90;;;;;;5031574;28;19968;-82
2022/03/01 12:48:02;;;;;;;;;;;7.10;99.90;;;;;;5014556;28;19925;-83
2022/03/01 12:50:28;;;;;;;;;;;7.20;99.90;;;;;;5030781;28;19929;-83
2022/03/01 12:52:55;;;;;;;;;;;7.20;99.90;;;;;;5030909;28;20408;-83
2022/03/01 12:55:20;;;;;;;;;;;7.30;99.90;;;;;;5010636;28;20354;-82
2022/03/01 12:57:46;;;;;;;;;;;7.30;99.90;;;;;;5030388;28;20020;-82
2022/03/01 13:00:12;;;;;;;;;;;7.30;99.90;;;;;;5018149;28;20212;-83
2022/03/01 13:02:37;;;;;;;;;;;7.30;99.90;;;;;;5011540;28;19933;-82
2022/03/01 13:05:04;;;;;;;;;;;7.30;99.90;;;;;;5014044;28;19926;-83
2022/03/01 13:07:30;;;;;;;;;;;7.10;99.90;;;;;;5011430;28;19935;-83
2022/03/01 13:10:03;;;;;;;;;;;7.10;99.90;;;;;;5025920;28;19933;-82
2022/03/01 13:12:28;;;;;;;;;;;7.10;99.90;;;;;;5026546;28;19975;-83
2022/03/01 13:14:54;;;;;;;;;;;7.10;99.90;;;;;;5030113;28;19925;-82
2022/03/01 13:17:20;;;;;;;;;;;7.20;99.90;;;;;;5030400;28;19929;-81
2022/03/01 13:19:45;;;;;;;;;;;7.10;99.90;;;;;;5014998;28;19925;-83
2022/03/01 13:22:11;;;;;;;;;;;7.00;99.90;;;;;;5027340;28;20377;-83
2022/03/01 13:24:37;;;;;;;;;;;7.10;99.90;;;;;;5029417;28;20270;-82
2022/03/01 13:27:04;;;;;;;;;;;7.10;99.90;;;;;;5029818;28;19925;-84
2022/03/01 13:29:31;;;;;;;;;;;7.20;99.90;;;;;;5027302;28;19962;-82
2022/03/01 13:32:03;;;;;;;;;;;7.30;99.90;;;;;;5027942;28;19929;-82
2022/03/01 13:34:29;;;;;;;;;;;7.30;99.90;;;;;;5032813;28;19951;-83
2022/03/01 13:36:54;;;;;;;;;;;7.30;99.90;;;;;;5017339;28;20365;-84
2022/03/01 13:39:20;;;;;;;;;;;7.40;99.90;;;;;;5016272;28;19926;-84
2022/03/01 13:41:56;;;;;;;;;;;7.40;99.90;;;;;;5032095;28;19932;-86
2022/03/01 13:44:21;;;;;;;;;;;7.50;99.90;;;;;;5032177;28;20263;-80
2022/03/01 13:46:56;;;;;;;;;;;7.50;99.90;;;;;;5031998;28;19928;-77
2022/03/01 13:49:30;;;;;;;;;;;7.50;99.90;;;;;;5030716;28;19925;-79
2022/03/01 13:52:25;;;;;;;;;;;7.40;99.90;;;;;;5049433;28;20311;-79
2022/03/01 13:55:03;;;;;;;;;;;7.40;99.90;;;;;;5019555;28;19932;-79
2022/03/01 13:57:33;;;;;;;;;;;7.40;99.90;;;;;;5033610;28;20019;-82
2022/03/01 14:00:10;;;;;;;;;;;7.50;99.90;;;;;;5016928;28;19951;-80
2022/03/01 14:02:35;;;;;;;;;;;7.50;99.90;;;;;;5040464;28;19925;-81
2022/03/01 14:05:09;;;;;;;;;;;7.60;99.90;;;;;;5032686;28;19925;-81
2022/03/01 14:07:34;;;;;;;;;;;7.60;99.90;;;;;;5033046;28;19925;-79
2022/03/01 14:10:01;;;;;;;;;;;7.60;99.90;;;;;;5032652;28;19925;-80
2022/03/01 14:12:32;;;;;;;;;;;7.60;99.90;;;;;;5015969;28;20401;-79
2022/03/01 14:14:58;;;;;;;;;;;7.60;99.90;;;;;;5030066;28;20022;-79
2022/03/01 14:17:24;;;;;;;;;;;7.60;99.90;;;;;;5029999;28;20461;-79
2022/03/01 14:19:53;;;;;;;;;;;7.70;99.90;;;;;;5030489;28;20035;-80
2022/03/01 14:22:20;;;;;;;;;;;7.70;99.90;;;;;;5013018;28;20310;-79
2022/03/01 14:24:47;;;;;;;;;;;7.70;99.90;;;;;;5032881;28;19932;-80
2022/03/01 14:27:14;;;;;;;;;;;7.80;99.90;;;;;;5016019;28;19936;-80
2022/03/01 14:29:39;;;;;;;;;;;7.70;99.90;;;;;;5033421;28;19932;-79
2022/03/01 14:32:05;;;;;;;;;;;7.70;99.90;;;;;;5032196;28;20278;-77
2022/03/01 14:34:31;;;;;;;;;;;7.70;99.90;;;;;;5033470;28;20408;-78
2022/03/01 14:36:56;;;;;;;;;;;7.70;99.90;;;;;;5031715;28;20028;-78
2022/03/01 14:39:22;;;;;;;;;;;7.70;99.90;;;;;;5012860;28;19956;-77
2022/03/01 14:41:47;;;;;;;;;;;7.60;99.90;;;;;;5031870;28;19929;-78
2022/03/01 14:44:14;;;;;;;;;;;7.70;99.90;;;;;;5026632;28;19932;-78
2022/03/01 14:46:40;;;;;;;;;;;7.60;99.90;;;;;;5032627;28;19929;-78
2022/03/01 14:49:05;;;;;;;;;;;7.50;99.90;;;;;;5032512;28;19925;-78
2022/03/01 14:51:31;;;;;;;;;;;7.40;99.90;;;;;;5032208;28;19947;-79
2022/03/01 14:53:56;;;;;;;;;;;7.40;99.90;;;;;;5032704;28;19929;-81
2022/03/01 14:56:22;;;;;;;;;;;7.30;99.90;;;;;;5033207;28;19929;-79
2022/03/01 14:58:48;;;;;;;;;;;7.20;99.90;;;;;;5016320;28;19979;-83
2022/03/01 15:01:13;;;;;;;;;;;7.20;99.90;;;;;;5032856;28;20332;-80
2022/03/01 15:03:39;;;;;;;;;;;7.20;99.90;;;;;;5032947;28;19929;-79
2022/03/01 15:06:05;;;;;;;;;;;7.20;99.90;;;;;;5013832;28;19925;-79